sensor_id;sensor_type;location;lat;lon;timestamp;pressure;altitude;pressure_sealevel;temperature;humidity
6413;BME280;3239;48.714;9.472;2023-04-27T00:00:29;98344.41;;;7.59;100.00
6413;BME280;3239;48.714;9.472;2023-04-27T00:02:55;98346.91;;;7.57;100.00
6413;BME280;3239;48.714;9.472;2023-04-27T00:05:21;98340.94;;;7.59;100.00
6413;BME280;3239;48.714;9.472;2023-04-27T00:07:47;98342.94;;;7.53;100.00
6413;BME280;3239;48.714;9.472;2023-04-27T00:10:13;98344.41;;;7.54;100.00
6413;BME280;3239;48.714;9.472;2023-04-27T00:12:39;98347.88;;;7.54;100.00
6413;BME280;3239;48.714;9.472;2023-04-27T00:15:08;98343.94;;;7.50;100.00
6413;BME280;3239;48.714;9.472;2023-04-27T00:17:34;98352.13;;;7.44;100.00
6413;BME280;3239;48.714;9.472;2023-04-27T00:20:00;98352.88;;;7.23;100.00
6413;BME280;3239;48.714;9.472;2023-04-27T00:22:26;98352.13;;;7.28;100.00
6413;BME280;3239;48.714;9.472;2023-04-27T00:24:51;98358.06;;;7.37;100.00
6413;BME280;3239;48.714;9.472;2023-04-27T00:27:17;98356.59;;;7.36;100.00
6413;BME280;3239;48.714;9.472;2023-04-27T00:29:43;98365.50;;;7.37;100.00
6413;BME280;3239;48.714;9.472;2023-04-27T00:32:11;98355.34;;;7.37;100.00
6413;BME280;3239;48.714;9.472;2023-04-27T00:34:37;98355.59;;;7.39;100.00
6413;BME280;3239;48.714;9.472;2023-04-27T00:37:04;98350.88;;;7.34;100.00
6413;BME280;3239;48.714;9.472;2023-04-27T00:39:33;98341.47;;;7.24;100.00
6413;BME280;3239;48.714;9.472;2023-04-27T00:41:59;98348.66;;;7.27;100.00
6413;BME280;3239;48.714;9.472;2023-04-27T00:44:26;98348.16;;;7.34;100.00
6413;BME280;3239;48.714;9.472;2023-04-27T00:46:53;98350.63;;;7.27;100.00
6413;BME280;3239;48.714;9.472;2023-04-27T00:49:20;98352.63;;;7.26;100.00
6413;BME280;3239;48.714;9.472;2023-04-27T00:51:47;98338.28;;;7.20;100.00
6413;BME280;3239;48.714;9.472;2023-04-27T00:54:15;98342.22;;;7.25;100.00
6413;BME280;3239;48.714;9.472;2023-04-27T00:56:43;98348.91;;;7.18;100.00
6413;BME280;3239;48.714;9.472;2023-04-27T00:59:09;98345.72;;;7.09;100.00
6413;BME280;3239;48.714;9.472;2023-04-27T01:01:35;98354.59;;;7.09;100.00
6413;BME280;3239;48.714;9.472;2023-04-27T01:04:01;98359.31;;;7.09;100.00
6413;BME280;3239;48.714;9.472;2023-04-27T01:06:26;98357.34;;;7.09;100.00
6413;BME280;3239;48.714;9.472;2023-04-27T01:08:54;98356.84;;;7.05;100.00
6413;BME280;3239;48.714;9.472;2023-04-27T01:11:20;98357.59;;;6.95;100.00
6413;BME280;3239;48.714;9.472;2023-04-27T01:13:46;98359.81;;;7.02;100.00
6413;BME280;3239;48.714;9.472;2023-04-27T01:16:12;98366.25;;;7.04;100.00
6413;BME280;3239;48.714;9.472;2023-04-27T01:18:37;98372.69;;;7.07;100.00
6413;BME280;3239;48.714;9.472;2023-04-27T01:21:05;98360.06;;;7.04;100.00
6413;BME280;3239;48.714;9.472;2023-04-27T01:23:31;98360.31;;;7.00;100.00
6413;BME280;3239;48.714;9.472;2023-04-27T01:25:57;98374.44;;;6.99;100.00
6413;BME280;3239;48.714;9.472;2023-04-27T01:28:23;98372.94;;;6.98;100.00
6413;BME280;3239;48.714;9.472;2023-04-27T01:30:48;98371.97;;;6.95;100.00
6413;BME280;3239;48.714;9.472;2023-04-27T01:33:14;98380.63;;;6.94;100.00
6413;BME280;3239;48.714;9.472;2023-04-27T01:35:40;98388.31;;;6.95;100.00
6413;BME280;3239;48.714;9.472;2023-04-27T01:38:06;98378.88;;;6.91;100.00
6413;BME280;3239;48.714;9.472;2023-04-27T01:40:31;98385.31;;;6.93;100.00
6413;BME280;3239;48.714;9.472;2023-04-27T01:42:57;98384.81;;;6.84;100.00
6413;BME280;3239;48.714;9.472;2023-04-27T01:45:23;98387.03;;;6.80;100.00
6413;BME280;3239;48.714;9.472;2023-04-27T01:47:52;98382.59;;;6.77;100.00
6413;BME280;3239;48.714;9.472;2023-04-27T01:50:19;98394.44;;;6.74;100.00
6413;BME280;3239;48.714;9.472;2023-04-27T01:52:44;98392.72;;;6.76;100.00
6413;BME280;3239;48.714;9.472;2023-04-27T01:55:10;98394.72;;;6.76;100.00
6413;BME280;3239;48.714;9.472;2023-04-27T01:57:36;98400.13;;;6.70;100.00
6413;BME280;3239;48.714;9.472;2023-04-27T02:00:02;98401.63;;;6.71;100.00
6413;BME280;3239;48.714;9.472;2023-04-27T02:02:29;98391.22;;;6.64;100.00
6413;BME280;3239;48.714;9.472;2023-04-27T02:04:55;98403.59;;;6.65;100.00
6413;BME280;3239;48.714;9.472;2023-04-27T02:07:21;98407.03;;;6.60;100.00
6413;BME280;3239;48.714;9.472;2023-04-27T02:09:47;98405.56;;;6.59;100.00
6413;BME280;3239;48.714;9.472;2023-04-27T02:12:12;98410.75;;;6.63;100.00
6413;BME280;3239;48.714;9.472;2023-04-27T02:14:38;98416.94;;;6.58;100.00
6413;BME280;3239;48.714;9.472;2023-04-27T02:17:04;98416.69;;;6.56;100.00
6413;BME280;3239;48.714;9.472;2023-04-27T02:19:30;98420.13;;;6.51;100.00
6413;BME280;3239;48.714;9.472;2023-04-27T02:21:56;98421.81;;;6.43;100.00
6413;BME280;3239;48.714;9.472;2023-04-27T02:24:22;98418.84;;;6.41;100.00
6413;BME280;3239;48.714;9.472;2023-04-27T02:26:47;98426.75;;;6.33;100.00
6413;BME280;3239;48.714;9.472;2023-04-27T02:29:13;98430.97;;;6.40;100.00
6413;BME280;3239;48.714;9.472;2023-04-27T02:31:39;98435.16;;;6.35;100.00
6413;BME280;3239;48.714;9.472;2023-04-27T02:34:05;98434.38;;;6.29;100.00
6413;BME280;3239;48.714;9.472;2023-04-27T02:36:31;98429.94;;;6.32;100.00
6413;BME280;3239;48.714;9.472;2023-04-27T02:38:57;98431.66;;;6.24;100.00
6413;BME280;3239;48.714;9.472;2023-04-27T02:41:23;98438.53;;;6.14;100.00
6413;BME280;3239;48.714;9.472;2023-04-27T02:43:49;98448.19;;;6.15;100.00
6413;BME280;3239;48.714;9.472;2023-04-27T02:46:15;98447.66;;;6.11;100.00
6413;BME280;3239;48.714;9.472;2023-04-27T02:48:41;98447.94;;;6.13;100.00
6413;BME280;3239;48.714;9.472;2023-04-27T02:51:07;98453.84;;;6.11;100.00
6413;BME280;3239;48.714;9.472;2023-04-27T02:53:33;98463.78;;;6.20;100.00
6413;BME280;3239;48.714;9.472;2023-04-27T02:55:58;98466.28;;;6.23;100.00
6413;BME280;3239;48.714;9.472;2023-04-27T02:58:24;98464.78;;;6.22;100.00
6413;BME280;3239;48.714;9.472;2023-04-27T03:00:54;98468.25;;;6.23;100.00
6413;BME280;3239;48.714;9.472;2023-04-27T03:03:21;98474.91;;;6.16;100.00
6413;BME280;3239;48.714;9.472;2023-04-27T03:05:47;98481.78;;;6.12;100.00
6413;BME280;3239;48.714;9.472;2023-04-27T03:08:13;98483.28;;;6.13;100.00
6413;BME280;3239;48.714;9.472;2023-04-27T03:10:39;98483.78;;;6.17;100.00
6413;BME280;3239;48.714;9.472;2023-04-27T03:13:04;98494.66;;;6.17;100.00
6413;BME280;3239;48.714;9.472;2023-04-27T03:15:30;98487.25;;;6.17;100.00
6413;BME280;3239;48.714;9.472;2023-04-27T03:17:56;98480.88;;;6.20;100.00
6413;BME280;3239;48.714;9.472;2023-04-27T03:20:22;98485.53;;;6.20;100.00
6413;BME280;3239;48.714;9.472;2023-04-27T03:22:48;98495.44;;;6.17;100.00
6413;BME280;3239;48.714;9.472;2023-04-27T03:25:13;98498.34;;;6.08;100.00
6413;BME280;3239;48.714;9.472;2023-04-27T03:27:39;98505.31;;;6.15;100.00
6413;BME280;3239;48.714;9.472;2023-04-27T03:30:06;98509.03;;;6.17;100.00
6413;BME280;3239;48.714;9.472;2023-04-27T03:32:31;98507.31;;;6.20;100.00
6413;BME280;3239;48.714;9.472;2023-04-27T03:34:57;98501.88;;;6.20;100.00
6413;BME280;3239;48.714;9.472;2023-04-27T03:37:23;98502.34;;;6.18;100.00
6413;BME280;3239;48.714;9.472;2023-04-27T03:39:49;98514.22;;;6.15;100.00
6413;BME280;3239;48.714;9.472;2023-04-27T03:42:15;98502.84;;;6.17;100.00
6413;BME280;3239;48.714;9.472;2023-04-27T03:44:41;98499.88;;;6.15;100.00
6413;BME280;3239;48.714;9.472;2023-04-27T03:47:06;98503.63;;;6.23;100.00
6413;BME280;3239;48.714;9.472;2023-04-27T03:49:34;98503.09;;;6.19;100.00
6413;BME280;3239;48.714;9.472;2023-04-27T03:52:01;98498.38;;;6.19;100.00
6413;BME280;3239;48.714;9.472;2023-04-27T03:54:27;98514.47;;;6.17;100.00
6413;BME280;3239;48.714;9.472;2023-04-27T03:56:53;98515.94;;;6.18;100.00
6413;BME280;3239;48.714;9.472;2023-04-27T03:59:19;98518.19;;;6.20;100.00
6413;BME280;3239;48.714;9.472;2023-04-27T04:01:44;98519.44;;;6.19;100.00
6413;BME280;3239;48.714;9.472;2023-04-27T04:04:10;98517.22;;;6.23;100.00
6413;BME280;3239;48.714;9.472;2023-04-27T04:06:36;98528.13;;;6.23;100.00
6413;BME280;3239;48.714;9.472;2023-04-27T04:09:02;98528.53;;;6.16;100.00
6413;BME280;3239;48.714;9.472;2023-04-27T04:11:28;98524.13;;;6.18;100.00
6413;BME280;3239;48.714;9.472;2023-04-27T04:13:54;98531.56;;;6.23;100.00
6413;BME280;3239;48.714;9.472;2023-04-27T04:16:20;98540.72;;;6.26;100.00
6413;BME280;3239;48.714;9.472;2023-04-27T04:18:45;98537.00;;;6.23;100.00
6413;BME280;3239;48.714;9.472;2023-04-27T04:21:11;98527.13;;;6.20;100.00
6413;BME280;3239;48.714;9.472;2023-04-27T04:23:37;98531.03;;;6.19;100.00
6413;BME280;3239;48.714;9.472;2023-04-27T04:26:06;98534.47;;;6.14;100.00
6413;BME280;3239;48.714;9.472;2023-04-27T04:28:32;98532.28;;;6.18;100.00
6413;BME280;3239;48.714;9.472;2023-04-27T04:30:59;98527.59;;;6.24;100.00
6413;BME280;3239;48.714;9.472;2023-04-27T04:33:25;98532.63;;;6.31;100.00
6413;BME280;3239;48.714;9.472;2023-04-27T04:35:51;98533.63;;;6.34;100.00
6413;BME280;3239;48.714;9.472;2023-04-27T04:38:18;98538.31;;;6.33;100.00
6413;BME280;3239;48.714;9.472;2023-04-27T04:40:43;98542.81;;;6.42;100.00
6413;BME280;3239;48.714;9.472;2023-04-27T04:43:09;98543.78;;;6.39;100.00
6413;BME280;3239;48.714;9.472;2023-04-27T04:45:35;98543.31;;;6.46;100.00
6413;BME280;3239;48.714;9.472;2023-04-27T04:48:01;98543.09;;;6.49;100.00
6413;BME280;3239;48.714;9.472;2023-04-27T04:50:27;98538.41;;;6.50;100.00
6413;BME280;3239;48.714;9.472;2023-04-27T04:52:53;98537.19;;;6.56;100.00
6413;BME280;3239;48.714;9.472;2023-04-27T04:55:20;98529.53;;;6.60;100.00
6413;BME280;3239;48.714;9.472;2023-04-27T04:57:45;98525.09;;;6.63;100.00
6413;BME280;3239;48.714;9.472;2023-04-27T05:00:12;98521.16;;;6.69;100.00
6413;BME280;3239;48.714;9.472;2023-04-27T05:02:41;98520.13;;;6.56;100.00
6413;BME280;3239;48.714;9.472;2023-04-27T05:05:07;98523.31;;;6.54;100.00
6413;BME280;3239;48.714;9.472;2023-04-27T05:07:33;98516.97;;;6.74;100.00
6413;BME280;3239;48.714;9.472;2023-04-27T05:09:59;98512.03;;;6.83;100.00
6413;BME280;3239;48.714;9.472;2023-04-27T05:12:25;98524.72;;;6.97;100.00
6413;BME280;3239;48.714;9.472;2023-04-27T05:14:51;98519.03;;;6.95;100.00
6413;BME280;3239;48.714;9.472;2023-04-27T05:17:17;98517.59;;;7.05;100.00
6413;BME280;3239;48.714;9.472;2023-04-27T05:19:43;98519.59;;;7.10;100.00
6413;BME280;3239;48.714;9.472;2023-04-27T05:22:09;98516.59;;;7.08;100.00
6413;BME280;3239;48.714;9.472;2023-04-27T05:24:35;98516.31;;;6.95;100.00
6413;BME280;3239;48.714;9.472;2023-04-27T05:27:01;98508.38;;;6.92;100.00
6413;BME280;3239;48.714;9.472;2023-04-27T05:29:26;98507.34;;;6.84;100.00
6413;BME280;3239;48.714;9.472;2023-04-27T05:31:52;98502.44;;;6.99;100.00
6413;BME280;3239;48.714;9.472;2023-04-27T05:34:18;98498.78;;;7.18;100.00
6413;BME280;3239;48.714;9.472;2023-04-27T05:36:44;98499.53;;;7.19;100.00
6413;BME280;3239;48.714;9.472;2023-04-27T05:39:12;98492.84;;;7.25;100.00
6413;BME280;3239;48.714;9.472;2023-04-27T05:41:38;98490.88;;;7.37;100.00
6413;BME280;3239;48.714;9.472;2023-04-27T05:44:05;98491.63;;;7.37;100.00
6413;BME280;3239;48.714;9.472;2023-04-27T05:46:31;98478.75;;;7.43;100.00
6413;BME280;3239;48.714;9.472;2023-04-27T05:48:57;98472.78;;;7.50;100.00
6413;BME280;3239;48.714;9.472;2023-04-27T05:51:22;98478.75;;;7.82;100.00
6413;BME280;3239;48.714;9.472;2023-04-27T05:53:48;98476.25;;;7.78;100.00
6413;BME280;3239;48.714;9.472;2023-04-27T05:56:14;98470.28;;;7.96;100.00
6413;BME280;3239;48.714;9.472;2023-04-27T05:58:40;98475.97;;;8.04;100.00
6413;BME280;3239;48.714;9.472;2023-04-27T06:01:06;98466.50;;;8.16;100.00
6413;BME280;3239;48.714;9.472;2023-04-27T06:03:32;98460.75;;;8.47;100.00
6413;BME280;3239;48.714;9.472;2023-04-27T06:06:00;98469.78;;;8.20;100.00
6413;BME280;3239;48.714;9.472;2023-04-27T06:08:26;98458.81;;;8.25;100.00
6413;BME280;3239;48.714;9.472;2023-04-27T06:10:53;98464.78;;;8.18;100.00
6413;BME280;3239;48.714;9.472;2023-04-27T06:13:19;98451.34;;;8.42;100.00
6413;BME280;3239;48.714;9.472;2023-04-27T06:15:45;98445.31;;;8.55;100.00
6413;BME280;3239;48.714;9.472;2023-04-27T06:18:11;98449.88;;;8.87;100.00
6413;BME280;3239;48.714;9.472;2023-04-27T06:20:37;98433.31;;;9.15;100.00
6413;BME280;3239;48.714;9.472;2023-04-27T06:23:03;98431.66;;;9.01;100.00
6413;BME280;3239;48.714;9.472;2023-04-27T06:25:29;98422.75;;;9.30;100.00
6413;BME280;3239;48.714;9.472;2023-04-27T06:27:56;98414.06;;;9.61;100.00
6413;BME280;3239;48.714;9.472;2023-04-27T06:30:23;98414.84;;;9.26;100.00
6413;BME280;3239;48.714;9.472;2023-04-27T06:32:50;98410.19;;;9.16;100.00
6413;BME280;3239;48.714;9.472;2023-04-27T06:35:16;98410.19;;;9.45;100.00
6413;BME280;3239;48.714;9.472;2023-04-27T06:37:42;98407.81;;;9.60;100.00
6413;BME280;3239;48.714;9.472;2023-04-27T06:40:09;98407.00;;;9.41;100.00
6413;BME280;3239;48.714;9.472;2023-04-27T06:42:36;98400.16;;;9.83;100.00
6413;BME280;3239;48.714;9.472;2023-04-27T06:45:02;98393.00;;;9.98;100.00
6413;BME280;3239;48.714;9.472;2023-04-27T06:47:29;98386.59;;;10.38;100.00
6413;BME280;3239;48.714;9.472;2023-04-27T06:49:55;98382.75;;;10.65;100.00
6413;BME280;3239;48.714;9.472;2023-04-27T06:52:20;98377.03;;;10.82;100.00
6413;BME280;3239;48.714;9.472;2023-04-27T06:54:46;98376.91;;;10.56;100.00
6413;BME280;3239;48.714;9.472;2023-04-27T06:57:12;98374.69;;;10.36;100.00
6413;BME280;3239;48.714;9.472;2023-04-27T06:59:38;98383.47;;;10.84;100.00
6413;BME280;3239;48.714;9.472;2023-04-27T07:02:05;98368.53;;;11.17;100.00
6413;BME280;3239;48.714;9.472;2023-04-27T07:04:31;98372.78;;;11.31;100.00
6413;BME280;3239;48.714;9.472;2023-04-27T07:06:57;98377.13;;;11.39;100.00
6413;BME280;3239;48.714;9.472;2023-04-27T07:09:23;98372.78;;;11.31;100.00
6413;BME280;3239;48.714;9.472;2023-04-27T07:11:49;98365.84;;;11.74;100.00
6413;BME280;3239;48.714;9.472;2023-04-27T07:14:14;98362.84;;;11.59;100.00
6413;BME280;3239;48.714;9.472;2023-04-27T07:16:40;98362.34;;;11.74;100.00
6413;BME280;3239;48.714;9.472;2023-04-27T07:19:09;98366.47;;;12.06;100.00
6413;BME280;3239;48.714;9.472;2023-04-27T07:21:34;98367.31;;;12.01;100.00
6413;BME280;3239;48.714;9.472;2023-04-27T07:24:00;98351.94;;;12.78;100.00
6413;BME280;3239;48.714;9.472;2023-04-27T07:26:26;98353.38;;;12.12;100.00
6413;BME280;3239;48.714;9.472;2023-04-27T07:28:51;98349.34;;;12.60;100.00
6413;BME280;3239;48.714;9.472;2023-04-27T07:31:17;98339.06;;;12.73;100.00
6413;BME280;3239;48.714;9.472;2023-04-27T07:33:43;98339.25;;;12.42;100.00
6413;BME280;3239;48.714;9.472;2023-04-27T07:36:09;98336.91;;;13.13;100.00
6413;BME280;3239;48.714;9.472;2023-04-27T07:38:35;98341.78;;;13.48;100.00
6413;BME280;3239;48.714;9.472;2023-04-27T07:41:03;98336.63;;;13.24;100.00
6413;BME280;3239;48.714;9.472;2023-04-27T07:43:31;98333.88;;;13.03;100.00
6413;BME280;3239;48.714;9.472;2023-04-27T07:45:57;98335.59;;;13.55;100.00
6413;BME280;3239;48.714;9.472;2023-04-27T07:48:24;98331.91;;;13.52;100.00
6413;BME280;3239;48.714;9.472;2023-04-27T07:50:50;98344.13;;;13.44;100.00
6413;BME280;3239;48.714;9.472;2023-04-27T07:53:16;98341.31;;;14.63;100.00
6413;BME280;3239;48.714;9.472;2023-04-27T07:55:42;98338.69;;;15.46;100.00
6413;BME280;3239;48.714;9.472;2023-04-27T07:58:11;98341.38;;;16.06;99.18
6413;BME280;3239;48.714;9.472;2023-04-27T08:00:37;98348.78;;;15.81;100.00
6413;BME280;3239;48.714;9.472;2023-04-27T08:03:03;98341.78;;;15.20;93.69
6413;BME280;3239;48.714;9.472;2023-04-27T08:05:29;98335.22;;;17.26;85.64
6413;BME280;3239;48.714;9.472;2023-04-27T08:07:55;98341.09;;;16.81;75.23
6413;BME280;3239;48.714;9.472;2023-04-27T08:10:22;98341.34;;;17.00;81.32
6413;BME280;3239;48.714;9.472;2023-04-27T08:12:48;98343.22;;;16.11;79.73
6413;BME280;3239;48.714;9.472;2023-04-27T08:15:14;98347.47;;;16.04;91.21
6413;BME280;3239;48.714;9.472;2023-04-27T08:17:40;98339.81;;;16.27;86.85
6413;BME280;3239;48.714;9.472;2023-04-27T08:20:08;98341.34;;;16.13;85.96
6413;BME280;3239;48.714;9.472;2023-04-27T08:22:40;98340.09;;;16.61;84.26
6413;BME280;3239;48.714;9.472;2023-04-27T08:25:08;98333.28;;;16.87;83.08
6413;BME280;3239;48.714;9.472;2023-04-27T08:27:39;98327.66;;;16.30;70.99
6413;BME280;3239;48.714;9.472;2023-04-27T08:30:06;98326.94;;;16.22;81.63
6413;BME280;3239;48.714;9.472;2023-04-27T08:32:33;98316.53;;;16.53;66.35
6413;BME280;3239;48.714;9.472;2023-04-27T08:34:58;98316.72;;;16.47;73.74
6413;BME280;3239;48.714;9.472;2023-04-27T08:37:24;98308.34;;;17.43;61.90
6413;BME280;3239;48.714;9.472;2023-04-27T08:39:50;98308.97;;;17.59;56.20
6413;BME280;3239;48.714;9.472;2023-04-27T08:42:16;98309.81;;;18.63;54.08
6413;BME280;3239;48.714;9.472;2023-04-27T08:44:42;98302.47;;;17.15;57.66
6413;BME280;3239;48.714;9.472;2023-04-27T08:47:09;98309.44;;;17.23;56.16
6413;BME280;3239;48.714;9.472;2023-04-27T08:49:36;98307.91;;;16.73;65.44
6413;BME280;3239;48.714;9.472;2023-04-27T08:52:13;98299.31;;;17.43;60.63
6413;BME280;3239;48.714;9.472;2023-04-27T08:54:39;98301.63;;;16.41;70.24
6413;BME280;3239;48.714;9.472;2023-04-27T08:57:12;98307.72;;;16.79;66.64
6413;BME280;3239;48.714;9.472;2023-04-27T08:59:39;98303.78;;;17.80;63.07
6413;BME280;3239;48.714;9.472;2023-04-27T09:02:05;98296.66;;;17.28;57.16
6413;BME280;3239;48.714;9.472;2023-04-27T09:04:38;98290.56;;;17.88;58.05
6413;BME280;3239;48.714;9.472;2023-04-27T09:07:16;98287.88;;;19.20;55.12
6413;BME280;3239;48.714;9.472;2023-04-27T09:09:43;98283.34;;;18.36;49.58
6413;BME280;3239;48.714;9.472;2023-04-27T09:12:18;98290.56;;;19.01;44.25
6413;BME280;3239;48.714;9.472;2023-04-27T09:15:00;98288.53;;;17.88;52.08
6413;BME280;3239;48.714;9.472;2023-04-27T09:17:29;98291.44;;;18.24;48.97
6413;BME280;3239;48.714;9.472;2023-04-27T09:20:06;98297.03;;;18.51;48.23
6413;BME280;3239;48.714;9.472;2023-04-27T09:22:52;98292.59;;;17.70;51.67
6413;BME280;3239;48.714;9.472;2023-04-27T09:25:30;98290.59;;;18.48;57.16
6413;BME280;3239;48.714;9.472;2023-04-27T09:27:57;98293.50;;;18.67;52.72
6413;BME280;3239;48.714;9.472;2023-04-27T09:30:25;98285.88;;;18.68;46.64
6413;BME280;3239;48.714;9.472;2023-04-27T09:32:58;98289.41;;;18.68;46.95
6413;BME280;3239;48.714;9.472;2023-04-27T09:35:28;98295.25;;;18.29;46.06
6413;BME280;3239;48.714;9.472;2023-04-27T09:37:55;98299.19;;;18.96;46.76
6413;BME280;3239;48.714;9.472;2023-04-27T09:40:28;98298.84;;;18.82;49.37
6413;BME280;3239;48.714;9.472;2023-04-27T09:42:58;98308.03;;;19.47;50.75
6413;BME280;3239;48.714;9.472;2023-04-27T09:45:28;98303.66;;;20.68;45.95
6413;BME280;3239;48.714;9.472;2023-04-27T09:47:55;98292.84;;;19.67;43.05
6413;BME280;3239;48.714;9.472;2023-04-27T09:50:20;98290.38;;;19.90;44.83
6413;BME280;3239;48.714;9.472;2023-04-27T09:52:46;98293.75;;;19.98;47.17
6413;BME280;3239;48.714;9.472;2023-04-27T09:55:26;98290.06;;;21.42;43.87
6413;BME280;3239;48.714;9.472;2023-04-27T09:58:20;98290.81;;;21.33;38.00
6413;BME280;3239;48.714;9.472;2023-04-27T10:00:59;98294.22;;;20.33;43.10
6413;BME280;3239;48.714;9.472;2023-04-27T10:07:00;98280.94;;;23.96;35.59
6413;BME280;3239;48.714;9.472;2023-04-27T10:09:40;98265.97;;;24.28;35.18
6413;BME280;3239;48.714;9.472;2023-04-27T10:12:41;98275.00;;;24.77;34.31
6413;BME280;3239;48.714;9.472;2023-04-27T10:17:45;98269.66;;;26.18;30.36
6413;BME280;3239;48.714;9.472;2023-04-27T10:20:11;98277.56;;;24.48;30.85
6413;BME280;3239;48.714;9.472;2023-04-27T10:22:43;98268.25;;;21.60;32.60
6413;BME280;3239;48.714;9.472;2023-04-27T10:27:57;98273.81;;;20.49;36.19
6413;BME280;3239;48.714;9.472;2023-04-27T10:30:30;98271.91;;;19.11;35.43
6413;BME280;3239;48.714;9.472;2023-04-27T10:33:03;98278.22;;;20.05;36.54
6413;BME280;3239;48.714;9.472;2023-04-27T10:35:58;98279.38;;;19.92;36.60
6413;BME280;3239;48.714;9.472;2023-04-27T10:38:29;98277.44;;;19.47;36.18
6413;BME280;3239;48.714;9.472;2023-04-27T10:41:02;98278.81;;;19.84;37.61
6413;BME280;3239;48.714;9.472;2023-04-27T10:43:34;98260.69;;;20.21;37.26
6413;BME280;3239;48.714;9.472;2023-04-27T10:46:14;98264.72;;;21.59;35.44
6413;BME280;3239;48.714;9.472;2023-04-27T10:48:41;98263.34;;;21.39;35.15
6413;BME280;3239;48.714;9.472;2023-04-27T10:51:08;98250.84;;;22.24;34.74
6413;BME280;3239;48.714;9.472;2023-04-27T10:53:37;98247.69;;;21.34;35.61
6413;BME280;3239;48.714;9.472;2023-04-27T10:56:03;98252.34;;;22.37;36.79
6413;BME280;3239;48.714;9.472;2023-04-27T10:58:32;98252.56;;;22.29;33.81
6413;BME280;3239;48.714;9.472;2023-04-27T11:00:58;98245.59;;;21.65;36.05
6413;BME280;3239;48.714;9.472;2023-04-27T11:03:24;98253.03;;;21.93;35.78
6413;BME280;3239;48.714;9.472;2023-04-27T11:06:02;98256.72;;;20.34;38.36
6413;BME280;3239;48.714;9.472;2023-04-27T11:08:29;98243.75;;;21.79;36.96
6413;BME280;3239;48.714;9.472;2023-04-27T11:11:00;98246.03;;;19.64;37.68
6413;BME280;3239;48.714;9.472;2023-04-27T11:13:26;98249.53;;;20.40;39.52
6413;BME280;3239;48.714;9.472;2023-04-27T11:15:58;98252.50;;;19.21;39.63
6413;BME280;3239;48.714;9.472;2023-04-27T11:18:30;98244.72;;;19.10;42.72
6413;BME280;3239;48.714;9.472;2023-04-27T11:21:11;98236.69;;;19.14;42.15
6413;BME280;3239;48.714;9.472;2023-04-27T11:23:39;98247.75;;;18.59;44.95
6413;BME280;3239;48.714;9.472;2023-04-27T11:26:18;98245.72;;;19.05;46.90
6413;BME280;3239;48.714;9.472;2023-04-27T11:28:57;98244.41;;;19.61;48.75
6413;BME280;3239;48.714;9.472;2023-04-27T11:31:25;98245.03;;;19.69;46.12
6413;BME280;3239;48.714;9.472;2023-04-27T11:33:52;98235.31;;;19.32;43.03
6413;BME280;3239;48.714;9.472;2023-04-27T11:36:21;98233.72;;;19.02;44.90
6413;BME280;3239;48.714;9.472;2023-04-27T11:38:47;98223.38;;;19.12;45.86
6413;BME280;3239;48.714;9.472;2023-04-27T11:41:14;98235.09;;;19.11;50.01
6413;BME280;3239;48.714;9.472;2023-04-27T11:43:42;98223.69;;;18.44;46.49
6413;BME280;3239;48.714;9.472;2023-04-27T11:46:08;98216.56;;;18.77;48.28
6413;BME280;3239;48.714;9.472;2023-04-27T11:48:39;98226.75;;;18.39;45.23
6413;BME280;3239;48.714;9.472;2023-04-27T11:51:08;98228.78;;;18.21;47.73
6413;BME280;3239;48.714;9.472;2023-04-27T11:53:37;98228.84;;;18.31;47.59
6413;BME280;3239;48.714;9.472;2023-04-27T11:56:09;98246.69;;;17.94;47.86
6413;BME280;3239;48.714;9.472;2023-04-27T11:58:37;98237.41;;;17.65;49.81
6413;BME280;3239;48.714;9.472;2023-04-27T12:01:04;98237.56;;;18.01;49.02
6413;BME280;3239;48.714;9.472;2023-04-27T12:03:30;98245.47;;;18.04;51.78
6413;BME280;3239;48.714;9.472;2023-04-27T12:05:56;98240.34;;;17.67;51.86
6413;BME280;3239;48.714;9.472;2023-04-27T12:08:23;98236.84;;;17.66;53.14
6413;BME280;3239;48.714;9.472;2023-04-27T12:10:49;98238.66;;;17.71;53.15
6413;BME280;3239;48.714;9.472;2023-04-27T12:13:15;98235.97;;;18.24;56.18
6413;BME280;3239;48.714;9.472;2023-04-27T12:15:42;98227.94;;;18.02;54.95
6413;BME280;3239;48.714;9.472;2023-04-27T12:18:08;98225.31;;;18.47;51.11
6413;BME280;3239;48.714;9.472;2023-04-27T12:20:35;98220.91;;;18.44;48.04
6413;BME280;3239;48.714;9.472;2023-04-27T12:23:01;98218.81;;;18.62;47.86
6413;BME280;3239;48.714;9.472;2023-04-27T12:25:27;98212.44;;;19.14;53.58
6413;BME280;3239;48.714;9.472;2023-04-27T12:27:53;98213.53;;;19.57;49.79
6413;BME280;3239;48.714;9.472;2023-04-27T12:30:21;98213.59;;;19.11;47.46
6413;BME280;3239;48.714;9.472;2023-04-27T12:32:47;98211.69;;;19.14;50.54
6413;BME280;3239;48.714;9.472;2023-04-27T12:35:13;98210.91;;;19.97;51.08
6413;BME280;3239;48.714;9.472;2023-04-27T12:37:39;98207.94;;;20.33;52.83
6413;BME280;3239;48.714;9.472;2023-04-27T12:40:05;98203.31;;;19.50;44.30
6413;BME280;3239;48.714;9.472;2023-04-27T12:42:32;98196.31;;;18.58;44.16
6413;BME280;3239;48.714;9.472;2023-04-27T12:44:57;98194.81;;;19.48;47.19
6413;BME280;3239;48.714;9.472;2023-04-27T12:47:23;98202.47;;;19.11;47.79
6413;BME280;3239;48.714;9.472;2023-04-27T12:49:50;98201.84;;;19.77;48.89
6413;BME280;3239;48.714;9.472;2023-04-27T12:52:16;98203.81;;;19.20;43.41
6413;BME280;3239;48.714;9.472;2023-04-27T12:54:42;98196.03;;;18.63;45.68
6413;BME280;3239;48.714;9.472;2023-04-27T12:57:08;98193.50;;;18.84;48.47
6413;BME280;3239;48.714;9.472;2023-04-27T12:59:35;98192.31;;;19.99;49.48
6413;BME280;3239;48.714;9.472;2023-04-27T13:02:02;98195.25;;;19.54;45.05
6413;BME280;3239;48.714;9.472;2023-04-27T13:04:29;98189.84;;;19.56;51.16
6413;BME280;3239;48.714;9.472;2023-04-27T13:06:56;98190.59;;;20.53;48.83
6413;BME280;3239;48.714;9.472;2023-04-27T13:09:29;98183.16;;;19.04;45.27
6413;BME280;3239;48.714;9.472;2023-04-27T13:11:55;98182.28;;;18.56;45.20
6413;BME280;3239;48.714;9.472;2023-04-27T13:14:22;98181.91;;;18.69;48.46
6413;BME280;3239;48.714;9.472;2023-04-27T13:16:47;98179.94;;;18.98;46.80
6413;BME280;3239;48.714;9.472;2023-04-27T13:19:13;98173.69;;;18.61;47.65
6413;BME280;3239;48.714;9.472;2023-04-27T13:21:39;98172.97;;;18.70;46.53
6413;BME280;3239;48.714;9.472;2023-04-27T13:24:05;98170.38;;;19.27;46.68
6413;BME280;3239;48.714;9.472;2023-04-27T13:26:31;98166.72;;;19.34;46.97
6413;BME280;3239;48.714;9.472;2023-04-27T13:28:57;98168.78;;;19.43;44.45